Time;durP1;ratioP1;P1;durP2;ratioP2;P2;SDS_P1;SDS_P2;PMS_P1;PMS_P2;Temp;Humidity;BMP_temperature;BMP_pressure;BME280_temperature;BME280_humidity;BME280_pressure;Samples;Min_cycle;Max_cycle;Signal;HPM_P1;HPM_P2
2024/04/14 00:01:56;;;;;;;1.13;0.40;;;15.70;91.60;;;;;;5336832;26;21154;-59
2024/04/14 00:04:21;;;;;;;3.72;0.20;;;15.70;91.70;;;;;;5322022;26;20438;-57
2024/04/14 00:06:47;;;;;;;0.77;0.10;;;15.60;91.70;;;;;;5336702;26;20524;-51
2024/04/14 00:09:13;;;;;;;5.38;0.35;;;15.60;91.90;;;;;;5366883;26;19997;-61
2024/04/14 00:11:39;;;;;;;2.42;0.20;;;15.50;92.10;;;;;;5353571;26;19997;-59
2024/04/14 00:14:04;;;;;;;1.50;0.30;;;15.50;92.20;;;;;;5371514;26;20474;-61
2024/04/14 00:16:30;;;;;;;2.40;0.30;;;15.40;92.30;;;;;;5338162;26;20542;-53
2024/04/14 00:18:55;;;;;;;3.50;0.40;;;15.40;92.40;;;;;;5337524;26;20010;-57
2024/04/14 00:21:24;;;;;;;0.90;0.28;;;15.30;92.50;;;;;;5343538;26;20015;-61
2024/04/14 00:23:50;;;;;;;3.05;0.20;;;15.30;92.70;;;;;;5329535;26;20467;-50
2024/04/14 00:26:16;;;;;;;2.20;0.30;;;15.20;92.60;;;;;;5337061;26;20001;-61
2024/04/14 00:28:44;;;;;;;2.67;0.30;;;15.20;92.80;;;;;;5361093;26;20026;-52
2024/04/14 00:31:09;;;;;;;3.20;0.40;;;15.20;93.00;;;;;;5331507;26;19997;-61
2024/04/14 00:33:35;;;;;;;3.90;0.40;;;15.10;93.10;;;;;;5337499;26;20795;-61
2024/04/14 00:36:04;;;;;;;4.38;0.30;;;15.10;93.10;;;;;;5361441;26;20012;-60
2024/04/14 00:38:30;;;;;;;1.90;0.28;;;15.10;93.30;;;;;;5336336;26;20013;-55
2024/04/14 00:40:57;;;;;;;2.92;0.30;;;15.00;93.40;;;;;;5336853;26;20018;-57
2024/04/14 00:43:23;;;;;;;1.58;0.30;;;15.00;93.50;;;;;;5330260;26;20100;-49
2024/04/14 00:45:49;;;;;;;1.67;0.40;;;14.90;93.60;;;;;;5353866;26;20000;-62
2024/04/14 00:48:15;;;;;;;2.63;1.33;;;14.90;93.80;;;;;;5335264;26;20190;-54
2024/04/14 00:50:43;;;;;;;5.32;0.40;;;14.90;94.10;;;;;;5330350;26;20013;-55
2024/04/14 00:53:09;;;;;;;1.33;0.30;;;14.80;94.50;;;;;;5366319;26;20004;-62
2024/04/14 00:55:36;;;;;;;5.40;0.40;;;14.80;94.70;;;;;;5334416;26;20011;-61
2024/04/14 00:58:02;;;;;;;5.53;0.55;;;14.70;95.00;;;;;;5342755;26;20005;-57
2024/04/14 01:00:29;;;;;;;3.50;0.30;;;14.70;95.30;;;;;;5324123;26;19997;-61
2024/04/14 01:02:55;;;;;;;1.13;0.30;;;14.70;95.50;;;;;;5344531;26;20011;-60
2024/04/14 01:05:24;;;;;;;3.35;0.40;;;14.60;95.70;;;;;;5333057;26;20434;-60
2024/04/14 01:07:51;;;;;;;3.30;0.40;;;14.70;95.80;;;;;;5306708;26;20000;-53
2024/04/14 01:10:17;;;;;;;3.78;0.40;;;14.60;95.90;;;;;;5348720;26;20018;-61
2024/04/14 01:12:43;;;;;;;5.75;0.88;;;14.60;95.90;;;;;;5337671;26;20043;-56
2024/04/14 01:15:09;;;;;;;5.38;0.40;;;14.60;96.10;;;;;;5339653;26;20004;-60
2024/04/14 01:17:34;;;;;;;6.57;0.50;;;14.50;96.20;;;;;;5370627;26;20467;-54
2024/04/14 01:20:00;;;;;;;4.45;0.63;;;14.50;96.40;;;;;;5334496;26;20041;-54
2024/04/14 01:22:25;;;;;;;5.22;0.55;;;14.50;96.70;;;;;;5334242;26;19996;-57
2024/04/14 01:24:55;;;;;;;2.80;0.73;;;14.40;96.80;;;;;;5336064;26;20362;-62
2024/04/14 01:27:21;;;;;;;5.15;0.63;;;14.40;97.00;;;;;;5333295;26;20337;-55
2024/04/14 01:29:46;;;;;;;8.27;0.70;;;14.40;97.60;;;;;;5333778;26;20024;-53
2024/04/14 01:32:12;;;;;;;5.97;0.63;;;14.30;97.60;;;;;;5361930;26;20004;-54
2024/04/14 01:34:37;;;;;;;11.73;1.58;;;14.30;97.70;;;;;;5334940;26;20016;-50
2024/04/14 01:37:03;;;;;;;5.07;0.82;;;14.30;97.90;;;;;;5344058;26;20308;-61
2024/04/14 01:39:29;;;;;;;5.82;0.60;;;14.30;98.00;;;;;;5346461;26;20719;-58
2024/04/14 01:41:55;;;;;;;3.78;0.60;;;14.20;98.00;;;;;;5335097;26;20197;-60
2024/04/14 01:44:21;;;;;;;4.90;0.40;;;14.20;97.90;;;;;;5337612;26;20020;-53
2024/04/14 01:46:46;;;;;;;4.38;0.60;;;14.20;97.80;;;;;;5335051;26;20005;-60
2024/04/14 01:49:12;;;;;;;7.90;0.50;;;14.10;97.80;;;;;;5332550;26;20010;-62
2024/04/14 01:51:37;;;;;;;2.95;0.45;;;14.10;97.90;;;;;;5340040;26;19997;-51
2024/04/14 01:54:03;;;;;;;6.07;0.93;;;14.10;98.10;;;;;;5331493;26;20012;-62
2024/04/14 01:56:29;;;;;;;8.15;0.77;;;14.10;98.20;;;;;;5337004;26;19997;-60
2024/04/14 01:58:54;;;;;;;4.10;0.60;;;14.00;98.30;;;;;;5331113;26;20456;-55
2024/04/14 02:01:20;;;;;;;7.30;0.98;;;14.00;98.50;;;;;;5337011;26;20000;-48
2024/04/14 02:03:46;;;;;;;10.13;0.98;;;13.90;98.60;;;;;;5344119;26;20008;-61
2024/04/14 02:06:11;;;;;;;5.45;0.80;;;14.00;98.80;;;;;;5325537;26;20034;-61
2024/04/14 02:08:37;;;;;;;8.57;1.00;;;13.90;99.00;;;;;;5342613;26;19993;-57
2024/04/14 02:11:03;;;;;;;4.03;0.63;;;13.90;99.20;;;;;;5326990;26;19997;-61
2024/04/14 02:13:28;;;;;;;4.82;1.00;;;13.90;99.40;;;;;;5320746;26;20003;-55
2024/04/14 02:15:54;;;;;;;6.13;0.93;;;13.80;99.60;;;;;;5328213;26;19992;-50
2024/04/14 02:18:19;;;;;;;17.15;1.27;;;13.80;99.80;;;;;;5324295;26;20073;-49
2024/04/14 02:20:45;;;;;;;6.82;0.85;;;13.80;99.90;;;;;;5334756;26;20001;-61
2024/04/14 02:23:10;;;;;;;8.40;1.13;;;13.70;99.90;;;;;;5337839;26;20074;-59
2024/04/14 02:25:36;;;;;;;7.10;1.05;;;13.70;99.90;;;;;;5331474;26;19996;-50
2024/04/14 02:28:02;;;;;;;8.90;0.93;;;13.70;99.90;;;;;;5330217;26;20009;-61
2024/04/14 02:30:28;;;;;;;9.38;1.38;;;13.70;99.90;;;;;;5332256;26;20004;-54
2024/04/14 02:32:53;;;;;;;11.32;1.65;;;13.70;99.90;;;;;;5333793;26;20000;-59
2024/04/14 02:35:19;;;;;;;8.45;0.80;;;13.60;99.90;;;;;;5333076;26;20012;-60
2024/04/14 02:37:44;;;;;;;10.35;0.90;;;13.60;99.90;;;;;;5328925;26;20116;-60
2024/04/14 02:40:11;;;;;;;6.45;1.00;;;13.60;99.90;;;;;;5347262;26;20441;-60
2024/04/14 02:42:37;;;;;;;9.23;1.17;;;13.60;99.90;;;;;;5342734;26;19997;-44
2024/04/14 02:45:03;;;;;;;3.55;0.70;;;13.60;99.90;;;;;;5336432;26;20001;-53
2024/04/14 02:47:29;;;;;;;12.63;1.10;;;13.60;99.90;;;;;;5330871;26;20056;-60
2024/04/14 02:49:55;;;;;;;13.32;1.15;;;13.60;99.90;;;;;;5333556;26;20001;-60
2024/04/14 02:52:20;;;;;;;6.88;1.10;;;13.60;99.90;;;;;;5330430;26;20009;-57
2024/04/14 02:54:46;;;;;;;14.68;1.45;;;13.50;99.90;;;;;;5328382;26;20013;-64
2024/04/14 02:57:12;;;;;;;9.55;1.77;;;13.50;99.90;;;;;;5370732;26;20087;-53
2024/04/14 02:59:38;;;;;;;9.90;1.25;;;13.50;99.90;;;;;;5327006;26;20471;-55
2024/04/14 03:02:05;;;;;;;9.55;1.38;;;13.50;99.90;;;;;;5355024;26;20004;-57
2024/04/14 03:04:30;;;;;;;16.10;1.80;;;13.40;99.90;;;;;;5343272;26;20099;-56
2024/04/14 03:06:56;;;;;;;7.95;1.60;;;13.40;99.90;;;;;;5347473;26;21033;-61
2024/04/14 03:09:21;;;;;;;11.55;1.48;;;13.40;99.90;;;;;;5334385;26;20079;-58
2024/04/14 03:11:47;;;;;;;16.90;2.42;;;13.40;99.90;;;;;;5331460;26;20452;-54
2024/04/14 03:14:12;;;;;;;10.25;1.83;;;13.40;99.90;;;;;;5348948;26;20000;-56
2024/04/14 03:16:38;;;;;;;10.07;1.48;;;13.30;99.90;;;;;;5351634;26;19997;-44
2024/04/14 03:19:03;;;;;;;10.38;2.03;;;13.30;99.90;;;;;;5328310;26;20013;-59
2024/04/14 03:21:29;;;;;;;8.98;1.27;;;13.20;99.90;;;;;;5334754;26;20070;-59
2024/04/14 03:23:55;;;;;;;9.18;1.30;;;13.20;99.90;;;;;;5334656;26;20009;-53
2024/04/14 03:26:20;;;;;;;10.48;1.55;;;13.20;99.90;;;;;;5344260;26;20083;-53
2024/04/14 03:28:46;;;;;;;12.98;1.48;;;13.20;99.90;;;;;;5336801;26;20005;-56
2024/04/14 03:31:11;;;;;;;6.53;0.90;;;13.20;99.90;;;;;;5333731;26;20019;-58
2024/04/14 03:33:37;;;;;;;8.65;1.42;;;13.10;99.90;;;;;;5367274;26;20016;-55
2024/04/14 03:36:04;;;;;;;11.90;1.40;;;13.10;99.90;;;;;;5329461;26;20006;-57
2024/04/14 03:38:34;;;;;;;12.02;1.85;;;13.10;99.90;;;;;;5360528;26;20023;-53
2024/04/14 03:41:00;;;;;;;7.53;1.20;;;13.10;99.90;;;;;;5337647;26;20364;-60
2024/04/14 03:43:25;;;;;;;10.65;1.45;;;13.00;99.90;;;;;;5333463;26;20011;-59
2024/04/14 03:45:51;;;;;;;13.95;1.30;;;13.00;99.90;;;;;;5334600;26;19997;-60
2024/04/14 03:48:17;;;;;;;13.95;1.38;;;12.90;99.90;;;;;;5370887;26;20023;-51
2024/04/14 03:50:45;;;;;;;12.07;2.00;;;12.90;99.90;;;;;;5332647;26;20443;-55
2024/04/14 03:53:11;;;;;;;16.65;2.88;;;12.90;99.90;;;;;;5341182;26;20459;-56
2024/04/14 03:55:37;;;;;;;11.68;1.58;;;12.80;99.90;;;;;;5351966;26;20006;-46
2024/04/14 03:58:02;;;;;;;8.73;1.52;;;12.80;99.90;;;;;;5332329;26;19998;-56
2024/04/14 04:00:28;;;;;;;7.95;1.42;;;12.70;99.90;;;;;;5324934;26;20476;-48
2024/04/14 04:02:53;;;;;;;7.10;0.90;;;12.70;99.90;;;;;;5332584;26;19997;-56
2024/04/14 04:05:19;;;;;;;9.98;1.08;;;12.70;99.90;;;;;;5339655;26;20470;-50
2024/04/14 04:07:48;;;;;;;9.15;1.83;;;12.70;99.90;;;;;;5342845;26;20007;-60
2024/04/14 04:10:13;;;;;;;3.83;0.43;;;12.70;99.90;;;;;;5320187;26;20044;-56
2024/04/14 04:12:39;;;;;;;5.68;0.52;;;12.70;99.90;;;;;;5332768;26;20009;-54
2024/04/14 04:15:05;;;;;;;5.13;0.30;;;12.70;99.90;;;;;;5356333;26;20013;-60
2024/04/14 04:17:30;;;;;;;3.90;0.30;;;12.70;99.90;;;;;;5353649;26;20014;-59
2024/04/14 04:19:56;;;;;;;5.85;0.50;;;12.60;99.90;;;;;;5343297;26;20001;-59
2024/04/14 04:22:22;;;;;;;4.50;0.30;;;12.60;99.90;;;;;;5344531;26;20028;-51
2024/04/14 04:24:47;;;;;;;5.95;0.30;;;12.60;99.90;;;;;;5366612;26;20008;-55
2024/04/14 04:27:13;;;;;;;3.33;0.50;;;12.60;99.90;;;;;;5337482;26;20470;-55
2024/04/14 04:29:38;;;;;;;2.83;0.10;;;12.60;99.90;;;;;;5346899;26;19996;-56
2024/04/14 04:32:04;;;;;;;8.38;0.30;;;12.60;99.90;;;;;;5351012;26;19997;-60
2024/04/14 04:34:29;;;;;;;1.77;0.15;;;12.60;99.90;;;;;;5330675;26;20467;-60
2024/04/14 04:36:55;;;;;;;3.95;0.30;;;12.60;99.80;;;;;;5326537;26;20001;-60
2024/04/14 04:39:20;;;;;;;5.00;0.30;;;12.60;99.60;;;;;;5332743;26;20086;-51
2024/04/14 04:41:46;;;;;;;4.03;0.38;;;12.60;99.50;;;;;;5339750;26;20012;-53
2024/04/14 04:44:11;;;;;;;7.07;0.30;;;12.60;99.60;;;;;;5345516;26;20014;-51
2024/04/14 04:46:37;;;;;;;8.70;0.30;;;12.50;99.60;;;;;;5325357;26;20005;-56
2024/04/14 04:49:03;;;;;;;5.22;0.30;;;12.50;99.50;;;;;;5326439;26;20000;-60
2024/04/14 04:51:29;;;;;;;5.00;0.30;;;12.50;99.50;;;;;;5330223;26;20032;-59
2024/04/14 04:53:55;;;;;;;2.80;0.20;;;12.50;99.50;;;;;;5359474;26;20045;-59
2024/04/14 04:56:20;;;;;;;8.70;0.35;;;12.50;99.50;;;;;;5348069;26;20447;-56
2024/04/14 04:58:46;;;;;;;4.18;0.40;;;12.50;99.50;;;;;;5356056;26;20001;-55
2024/04/14 05:01:11;;;;;;;2.83;0.22;;;12.50;99.60;;;;;;5333407;26;20076;-60
2024/04/14 05:03:37;;;;;;;6.15;0.80;;;12.50;99.20;;;;;;5370443;26;20019;-53
2024/04/14 05:06:04;;;;;;;5.15;0.30;;;12.50;99.10;;;;;;5339285;26;20009;-57
2024/04/14 05:08:31;;;;;;;3.30;0.28;;;12.50;99.50;;;;;;5322350;26;20001;-56
2024/04/14 05:10:58;;;;;;;6.57;0.30;;;12.50;99.20;;;;;;5348724;26;20051;-57
2024/04/14 05:13:25;;;;;;;5.28;0.20;;;12.50;99.20;;;;;;5363477;26;20056;-50
2024/04/14 05:15:50;;;;;;;3.15;0.20;;;12.50;99.30;;;;;;5335010;26;19997;-59
2024/04/14 05:18:17;;;;;;;5.38;0.20;;;12.50;99.20;;;;;;5332487;26;20020;-58
2024/04/14 05:20:43;;;;;;;7.55;0.52;;;12.50;99.30;;;;;;5357151;26;19993;-55
2024/04/14 05:23:09;;;;;;;4.30;0.20;;;12.50;99.30;;;;;;5353141;26;19993;-59
2024/04/14 05:25:36;;;;;;;7.25;0.47;;;12.50;99.40;;;;;;5320401;26;20087;-55
2024/04/14 05:28:01;;;;;;;6.05;0.20;;;12.50;99.20;;;;;;5336267;26;20005;-60
2024/04/14 05:30:27;;;;;;;3.75;0.20;;;12.50;99.30;;;;;;5335885;26;20075;-56
2024/04/14 05:32:54;;;;;;;7.28;0.40;;;12.50;99.30;;;;;;5352098;26;20036;-54
2024/04/14 05:35:19;;;;;;;8.43;0.47;;;12.50;99.20;;;;;;5348793;26;20001;-59
2024/04/14 05:37:44;;;;;;;5.75;0.30;;;12.50;99.30;;;;;;5330455;26;20019;-59
2024/04/14 05:40:10;;;;;;;4.63;0.20;;;12.40;99.20;;;;;;5334315;26;20016;-46
2024/04/14 05:42:36;;;;;;;4.55;0.28;;;12.40;99.10;;;;;;5332537;26;20028;-59
2024/04/14 05:45:01;;;;;;;7.32;0.30;;;12.40;99.10;;;;;;5343063;26;20004;-53
2024/04/14 05:47:27;;;;;;;4.85;0.22;;;12.40;99.00;;;;;;5327185;26;20000;-55
2024/04/14 05:49:53;;;;;;;5.75;0.20;;;12.40;99.00;;;;;;5327443;26;20008;-58
2024/04/14 05:52:21;;;;;;;4.22;0.22;;;12.40;98.90;;;;;;5332844;26;20001;-59
2024/04/14 05:54:46;;;;;;;4.68;0.40;;;12.40;99.00;;;;;;5328693;26;20005;-60
2024/04/14 05:57:12;;;;;;;6.22;0.30;;;12.40;99.00;;;;;;5327827;26;20059;-60
2024/04/14 05:59:37;;;;;;;7.43;0.30;;;12.40;99.10;;;;;;5329114;26;19993;-53
2024/04/14 06:02:03;;;;;;;5.65;0.30;;;12.40;99.20;;;;;;5333828;26;20000;-60
2024/04/14 06:04:29;;;;;;;10.98;0.57;;;12.30;99.10;;;;;;5329614;26;20012;-50
2024/04/14 06:06:55;;;;;;;7.28;0.30;;;12.30;99.00;;;;;;5335689;26;20005;-59
2024/04/14 06:09:23;;;;;;;1.95;0.20;;;12.30;98.90;;;;;;5334731;26;20132;-51
2024/04/14 06:11:51;;;;;;;5.00;0.22;;;12.30;98.90;;;;;;5334807;26;20019;-57
2024/04/14 06:14:17;;;;;;;6.47;0.40;;;12.30;99.00;;;;;;5329695;26;20004;-60
2024/04/14 06:16:42;;;;;;;10.85;0.35;;;12.30;99.10;;;;;;5343008;26;20399;-59
2024/04/14 06:19:08;;;;;;;4.13;0.20;;;12.30;99.00;;;;;;5362149;26;20016;-56
2024/04/14 06:21:33;;;;;;;7.55;0.38;;;12.30;99.00;;;;;;5337451;26;20004;-52
2024/04/14 06:23:59;;;;;;;9.95;0.38;;;12.30;99.00;;;;;;5335491;26;20016;-50
2024/04/14 06:26:25;;;;;;;10.48;0.32;;;12.30;99.00;;;;;;5353813;26;20455;-56
2024/04/14 06:28:51;;;;;;;7.35;0.30;;;12.30;99.10;;;;;;5339838;26;20375;-60
2024/04/14 06:31:16;;;;;;;5.30;0.30;;;12.30;99.20;;;;;;5338948;26;20044;-58
2024/04/14 06:33:42;;;;;;;6.88;0.30;;;12.30;99.20;;;;;;5334583;26;19993;-58
2024/04/14 06:36:07;;;;;;;8.90;0.25;;;12.30;99.00;;;;;;5330612;26;20001;-54
2024/04/14 06:38:33;;;;;;;6.68;0.20;;;12.30;99.10;;;;;;5341206;26;20051;-59
2024/04/14 06:40:59;;;;;;;20.73;2.80;;;12.40;98.70;;;;;;5316343;26;20512;-51
2024/04/14 06:43:24;;;;;;;7.90;0.20;;;12.40;98.70;;;;;;5336309;26;20441;-55
2024/04/14 06:45:54;;;;;;;9.77;0.30;;;12.40;98.60;;;;;;5332992;26;20016;-52
2024/04/14 06:48:20;;;;;;;3.70;0.20;;;12.40;98.60;;;;;;5330807;26;20025;-51
2024/04/14 06:50:46;;;;;;;8.65;0.30;;;12.40;98.60;;;;;;5339460;26;20012;-55
2024/04/14 06:53:13;;;;;;;4.93;0.30;;;12.40;98.20;;;;;;5360575;26;19996;-50
2024/04/14 06:55:41;;;;;;;5.45;0.43;;;12.40;98.40;;;;;;5334091;26;20011;-54
2024/04/14 06:58:06;;;;;;;10.90;0.20;;;12.50;98.50;;;;;;5337470;26;20001;-47
2024/04/14 07:00:33;;;;;;;7.40;0.20;;;12.50;98.30;;;;;;5347598;26;20003;-45
2024/04/14 07:02:59;;;;;;;3.97;0.20;;;12.50;98.40;;;;;;5331094;26;19997;-52
2024/04/14 07:05:24;;;;;;;6.35;0.30;;;12.60;98.00;;;;;;5338181;26;20341;-52
2024/04/14 07:07:50;;;;;;;5.53;0.30;;;12.60;97.70;;;;;;5332514;26;20104;-60
2024/04/14 07:10:15;;;;;;;8.30;0.50;;;12.50;97.40;;;;;;5333778;26;20005;-46
2024/04/14 07:12:41;;;;;;;7.88;0.30;;;12.60;97.30;;;;;;5328001;26;20000;-59
2024/04/14 07:15:07;;;;;;;4.40;0.30;;;12.60;97.20;;;;;;5351534;26;20024;-50
2024/04/14 07:17:33;;;;;;;5.85;0.30;;;12.60;97.40;;;;;;5358052;26;20012;-58
2024/04/14 07:19:58;;;;;;;4.53;0.22;;;12.60;97.00;;;;;;5332060;26;20002;-59
2024/04/14 07:22:24;;;;;;;7.68;0.20;;;12.60;97.30;;;;;;5332938;26;20054;-48
2024/04/14 07:24:49;;;;;;;2.33;0.13;;;12.70;96.50;;;;;;5342142;26;20097;-58
2024/04/14 07:27:15;;;;;;;2.70;0.20;;;12.70;96.10;;;;;;5346366;26;20013;-56
2024/04/14 07:29:41;;;;;;;2.97;0.17;;;12.70;95.80;;;;;;5355615;26;20015;-54
2024/04/14 07:32:06;;;;;;;5.30;0.30;;;12.70;95.50;;;;;;5338771;26;20084;-48
2024/04/14 07:34:32;;;;;;;7.20;0.30;;;12.80;95.60;;;;;;5339475;26;20082;-50
2024/04/14 07:36:59;;;;;;;3.78;0.10;;;12.80;95.30;;;;;;5356185;26;20004;-55
2024/04/14 07:39:25;;;;;;;6.75;0.68;;;12.80;95.20;;;;;;5346488;26;20495;-56
2024/04/14 07:41:50;;;;;;;4.10;0.20;;;12.90;95.10;;;;;;5348862;26;20004;-47
2024/04/14 07:44:16;;;;;;;5.05;0.20;;;12.90;95.00;;;;;;5362648;26;20032;-59
2024/04/14 07:46:42;;;;;;;7.05;0.68;;;12.90;95.60;;;;;;5332740;26;20008;-58
2024/04/14 07:49:08;;;;;;;3.72;0.30;;;13.00;95.60;;;;;;5351417;26;20004;-58
2024/04/14 07:51:33;;;;;;;4.53;0.20;;;13.00;95.40;;;;;;5346697;26;20013;-59
2024/04/14 07:53:59;;;;;;;5.60;0.20;;;13.10;95.60;;;;;;5341020;26;20000;-55
2024/04/14 07:56:24;;;;;;;6.10;0.20;;;13.20;95.60;;;;;;5332615;26;20010;-58
2024/04/14 07:58:50;;;;;;;6.03;0.52;;;13.30;95.80;;;;;;5327652;26;20005;-57
2024/04/14 08:01:16;;;;;;;4.05;0.30;;;13.40;95.70;;;;;;5350903;26;20032;-54
2024/04/14 08:03:41;;;;;;;4.50;0.20;;;13.40;96.20;;;;;;5353263;26;20008;-49
2024/04/14 08:06:07;;;;;;;3.47;0.28;;;13.40;95.70;;;;;;5351985;26;20501;-55
2024/04/14 08:08:32;;;;;;;5.50;0.30;;;13.40;95.70;;;;;;5338649;26;20317;-55
2024/04/14 08:10:58;;;;;;;3.30;0.15;;;13.30;95.70;;;;;;5334883;26;20347;-52
2024/04/14 08:13:23;;;;;;;7.10;0.30;;;13.30;95.80;;;;;;5356391;26;20440;-58
2024/04/14 08:15:49;;;;;;;4.05;0.30;;;13.30;95.60;;;;;;5354824;26;20585;-58
2024/04/14 08:18:18;;;;;;;6.28;0.28;;;13.40;95.70;;;;;;5348241;26;20004;-56
2024/04/14 08:20:44;;;;;;;6.15;0.25;;;13.40;95.50;;;;;;5322696;26;20059;-59
2024/04/14 08:23:10;;;;;;;3.78;0.77;;;13.40;95.30;;;;;;5331940;26;20001;-57
2024/04/14 08:25:39;;;;;;;4.90;0.80;;;13.50;95.40;;;;;;5362216;26;20056;-58
2024/04/14 08:28:04;;;;;;;5.47;0.30;;;13.60;95.30;;;;;;5336661;26;20009;-54
2024/04/14 08:30:30;;;;;;;3.90;0.25;;;13.60;94.50;;;;;;5332165;26;20007;-59
2024/04/14 08:32:55;;;;;;;5.82;0.30;;;13.70;94.60;;;;;;5335007;26;19996;-56
2024/04/14 08:35:21;;;;;;;8.60;0.45;;;13.70;94.50;;;;;;5365026;26;20025;-56
2024/04/14 08:37:47;;;;;;;6.45;0.30;;;13.70;94.40;;;;;;5336449;26;20001;-51
2024/04/14 08:40:12;;;;;;;4.18;0.20;;;13.70;94.80;;;;;;5350577;26;20013;-50
2024/04/14 08:42:38;;;;;;;3.78;0.30;;;13.70;95.00;;;;;;5345625;26;20015;-55
2024/04/14 08:45:04;;;;;;;3.40;0.20;;;13.80;95.00;;;;;;5333633;26;20005;-58
2024/04/14 08:47:32;;;;;;;6.40;0.50;;;13.80;95.00;;;;;;5338050;26;20049;-59
2024/04/14 08:49:59;;;;;;;2.90;0.20;;;13.80;94.90;;;;;;5329176;26;20029;-59
2024/04/14 08:52:29;;;;;;;6.78;0.20;;;13.90;94.10;;;;;;5345716;26;19996;-53
2024/04/14 08:54:54;;;;;;;7.53;0.22;;;13.80;94.00;;;;;;5342403;26;20000;-59
2024/04/14 08:57:20;;;;;;;2.30;0.20;;;13.80;93.60;;;;;;5352933;26;20020;-59
2024/04/14 08:59:49;;;;;;;5.43;0.82;;;13.90;93.80;;;;;;5325676;26;20020;-57
2024/04/14 09:02:15;;;;;;;7.95;0.50;;;13.90;93.70;;;;;;5334203;26;19993;-58
2024/04/14 09:04:42;;;;;;;5.70;0.68;;;14.00;93.90;;;;;;5342812;26;20007;-58
2024/04/14 09:07:07;;;;;;;6.70;0.40;;;14.10;93.90;;;;;;5334038;26;20001;-54
2024/04/14 09:09:33;;;;;;;4.53;0.45;;;14.20;93.80;;;;;;5352827;26;20006;-57
2024/04/14 09:12:00;;;;;;;3.97;0.20;;;14.20;93.90;;;;;;5323598;26;19994;-58
2024/04/14 09:14:26;;;;;;;8.25;0.30;;;14.20;93.70;;;;;;5333804;26;19997;-59
2024/04/14 09:16:52;;;;;;;5.15;0.22;;;14.20;93.80;;;;;;5338714;26;20113;-56
2024/04/14 09:19:18;;;;;;;6.93;0.38;;;14.30;94.00;;;;;;5335359;26;20087;-57
2024/04/14 09:21:44;;;;;;;7.03;0.32;;;14.30;94.50;;;;;;5342158;26;20065;-52
2024/04/14 09:24:10;;;;;;;5.07;0.30;;;14.30;94.60;;;;;;5348059;26;19992;-47
2024/04/14 09:26:36;;;;;;;6.03;0.30;;;14.40;94.50;;;;;;5370889;26;19998;-52
2024/04/14 09:29:05;;;;;;;6.57;0.63;;;14.40;94.60;;;;;;5333360;26;19993;-58
2024/04/14 09:31:32;;;;;;;3.70;0.50;;;14.40;94.80;;;;;;5329898;26;20001;-56
2024/04/14 09:33:58;;;;;;;4.65;0.30;;;14.40;95.00;;;;;;5334005;26;20082;-57
2024/04/14 09:36:24;;;;;;;5.45;0.55;;;14.40;95.00;;;;;;5330042;26;20471;-55
2024/04/14 09:38:54;;;;;;;5.90;0.20;;;14.40;95.20;;;;;;5351354;26;19997;-55
2024/04/14 09:41:21;;;;;;;5.57;0.30;;;14.50;95.20;;;;;;5344194;26;20359;-57
2024/04/14 09:43:47;;;;;;;8.20;0.30;;;14.50;95.00;;;;;;5334202;26;20479;-54
2024/04/14 09:46:14;;;;;;;6.10;0.30;;;14.60;95.30;;;;;;5356985;26;20111;-55
2024/04/14 09:48:41;;;;;;;4.68;0.50;;;14.70;94.20;;;;;;5348149;26;20005;-54
2024/04/14 09:51:08;;;;;;;4.57;0.40;;;14.70;94.20;;;;;;5326031;26;20144;-56
2024/04/14 09:53:35;;;;;;;4.18;0.30;;;14.80;94.10;;;;;;5335948;26;20015;-55
2024/04/14 09:56:01;;;;;;;5.30;0.40;;;14.70;93.90;;;;;;5334622;26;20001;-52
2024/04/14 09:58:27;;;;;;;5.22;0.30;;;14.70;93.80;;;;;;5349834;26;20000;-59
2024/04/14 10:00:56;;;;;;;6.03;0.43;;;14.80;93.50;;;;;;5336800;26;20022;-56
2024/04/14 10:03:23;;;;;;;6.47;0.30;;;14.70;93.30;;;;;;5357188;26;20016;-55
2024/04/14 10:05:50;;;;;;;5.13;0.28;;;14.70;93.50;;;;;;5331074;26;20001;-58
2024/04/14 10:08:17;;;;;;;6.72;0.30;;;14.70;93.50;;;;;;5336572;26;19996;-53
2024/04/14 10:10:43;;;;;;;9.20;0.30;;;14.70;93.70;;;;;;5346629;26;20003;-55
2024/04/14 10:13:09;;;;;;;6.13;0.32;;;14.70;93.70;;;;;;5345857;26;20001;-55
2024/04/14 10:15:38;;;;;;;5.80;0.40;;;14.70;93.50;;;;;;5335497;26;19993;-50
2024/04/14 10:18:17;;;;;;;4.63;0.30;;;14.70;93.70;;;;;;5329776;26;20076;-58
2024/04/14 10:20:44;;;;;;;6.72;0.30;;;14.80;93.50;;;;;;5327030;26;20001;-56
2024/04/14 10:23:16;;;;;;;3.90;0.30;;;14.80;92.80;;;;;;5372313;26;20001;-56
2024/04/14 10:25:46;;;;;;;3.65;0.10;;;14.80;92.70;;;;;;5343681;26;19997;-57
2024/04/14 10:28:23;;;;;;;4.10;0.30;;;14.70;92.50;;;;;;5342925;26;20086;-60
2024/04/14 10:31:00;;;;;;;3.15;0.30;;;14.70;92.50;;;;;;5344997;26;20000;-62
2024/04/14 10:33:27;;;;;;;3.85;0.30;;;14.70;92.30;;;;;;5340189;26;20747;-58
2024/04/14 10:36:03;;;;;;;4.97;0.30;;;14.70;92.10;;;;;;5368550;26;20098;-51
2024/04/14 10:38:33;;;;;;;2.83;0.30;;;14.70;92.00;;;;;;5339369;26;20012;-62
2024/04/14 10:41:02;;;;;;;2.95;0.25;;;14.70;91.90;;;;;;5369205;26;20001;-52
2024/04/14 10:43:28;;;;;;;9.18;0.30;;;14.70;91.70;;;;;;5346630;26;20016;-58
2024/04/14 10:45:59;;;;;;;7.70;0.40;;;14.70;91.50;;;;;;5339065;26;20000;-54
2024/04/14 10:48:25;;;;;;;5.43;0.30;;;14.70;91.90;;;;;;5343705;26;20018;-61
2024/04/14 10:50:51;;;;;;;3.53;0.38;;;14.70;92.10;;;;;;5305989;26;19997;-60
2024/04/14 10:53:17;;;;;;;4.18;0.30;;;14.70;91.90;;;;;;5367494;26;20028;-54
2024/04/14 10:55:42;;;;;;;6.88;0.55;;;14.80;92.10;;;;;;5343794;26;20020;-61
2024/04/14 10:58:08;;;;;;;2.88;0.25;;;14.90;92.10;;;;;;5334338;26;20462;-60
2024/04/14 11:00:33;;;;;;;4.40;0.30;;;14.90;91.90;;;;;;5356641;26;20001;-58
2024/04/14 11:02:59;;;;;;;3.72;0.40;;;15.00;91.80;;;;;;5353787;26;20334;-54
2024/04/14 11:05:25;;;;;;;3.22;0.20;;;15.00;91.10;;;;;;5336141;26;20001;-59
2024/04/14 11:07:52;;;;;;;4.93;0.30;;;15.00;91.10;;;;;;5334885;26;20005;-55
2024/04/14 11:10:19;;;;;;;5.70;0.47;;;15.00;91.00;;;;;;5341049;26;20001;-62
2024/04/14 11:12:46;;;;;;;5.45;0.20;;;14.90;90.80;;;;;;5333588;26;20004;-62
2024/04/14 11:15:11;;;;;;;9.35;0.30;;;15.00;90.70;;;;;;5332678;26;20016;-53
2024/04/14 11:17:37;;;;;;;3.60;0.10;;;15.00;91.30;;;;;;5303681;26;19996;-56
2024/04/14 11:20:03;;;;;;;4.95;0.30;;;15.10;91.10;;;;;;5342241;26;19997;-62
2024/04/14 11:22:31;;;;;;;5.50;0.20;;;15.20;91.20;;;;;;5340990;26;19999;-59
2024/04/14 11:24:58;;;;;;;3.60;0.30;;;15.30;91.10;;;;;;5356637;26;20015;-52
2024/04/14 11:27:24;;;;;;;6.28;0.40;;;15.30;90.90;;;;;;5337684;26;20000;-63
2024/04/14 11:29:50;;;;;;;3.67;0.20;;;15.20;90.50;;;;;;5339600;26;20709;-62
2024/04/14 11:32:33;;;;;;;3.10;0.10;;;15.20;90.30;;;;;;5353961;26;20004;-47
2024/04/14 11:35:00;;;;;;;4.85;0.30;;;15.10;90.40;;;;;;5342432;26;20001;-53
2024/04/14 11:37:30;;;;;;;2.92;0.13;;;15.20;90.50;;;;;;5348113;26;20029;-51
2024/04/14 11:39:57;;;;;;;2.33;0.20;;;15.20;90.60;;;;;;5332275;26;20016;-61
2024/04/14 11:42:26;;;;;;;3.13;0.22;;;15.30;90.60;;;;;;5332845;26;20048;-61
2024/04/14 11:44:52;;;;;;;2.80;0.20;;;15.40;90.20;;;;;;5311115;26;20339;-60
2024/04/14 11:47:18;;;;;;;1.73;0.10;;;15.40;90.10;;;;;;5337145;26;20015;-55
2024/04/14 11:49:43;;;;;;;6.57;0.80;;;15.40;89.80;;;;;;5334898;26;20001;-58
2024/04/14 11:52:10;;;;;;;6.22;0.30;;;15.40;90.10;;;;;;5333835;26;20001;-62
2024/04/14 11:54:36;;;;;;;4.03;0.20;;;15.50;89.90;;;;;;5339132;26;20093;-58
2024/04/14 11:57:01;;;;;;;5.45;0.30;;;15.50;90.30;;;;;;5354488;26;20008;-44
2024/04/14 11:59:27;;;;;;;7.28;0.30;;;15.60;90.50;;;;;;5336819;26;20003;-60
2024/04/14 12:01:53;;;;;;;2.70;0.20;;;15.70;90.30;;;;;;5340837;26;20070;-59
2024/04/14 12:04:19;;;;;;;4.60;0.25;;;15.70;90.00;;;;;;5331396;26;20065;-62
2024/04/14 12:06:44;;;;;;;2.08;0.22;;;15.70;89.80;;;;;;5344437;26;20000;-63
2024/04/14 12:09:10;;;;;;;2.22;0.55;;;15.70;89.90;;;;;;5335224;26;20026;-51
2024/04/14 12:11:35;;;;;;;4.75;0.20;;;15.70;89.70;;;;;;5333318;26;20005;-63
2024/04/14 12:14:01;;;;;;;3.58;0.20;;;15.70;89.50;;;;;;5333696;26;20016;-63
2024/04/14 12:16:26;;;;;;;1.20;0.10;;;15.80;88.40;;;;;;5345301;26;20005;-58
2024/04/14 12:18:52;;;;;;;1.30;0.10;;;15.80;88.90;;;;;;5343871;26;20000;-58
2024/04/14 12:21:18;;;;;;;2.95;0.28;;;15.80;89.10;;;;;;5336410;26;20001;-52
2024/04/14 12:23:44;;;;;;;1.58;0.68;;;15.80;89.10;;;;;;5348621;26;20435;-59
2024/04/14 12:26:10;;;;;;;5.28;0.20;;;15.80;89.10;;;;;;5344791;26;20015;-58
2024/04/14 12:28:35;;;;;;;2.67;0.25;;;15.80;89.00;;;;;;5336695;26;20828;-58
2024/04/14 12:31:01;;;;;;;2.78;0.28;;;15.70;89.10;;;;;;5335297;26;20001;-54
2024/04/14 12:33:26;;;;;;;3.30;0.60;;;15.80;88.40;;;;;;5335604;26;20001;-64
2024/04/14 12:35:52;;;;;;;2.38;0.43;;;15.80;88.50;;;;;;5347022;26;20000;-58
2024/04/14 12:38:17;;;;;;;4.72;0.20;;;15.80;88.50;;;;;;5341243;26;20008;-56
2024/04/14 12:40:43;;;;;;;3.35;0.20;;;15.80;88.60;;;;;;5335499;26;20070;-57